createdAt,value
2017-12-26T00:00:13.069Z,3.77
2017-12-26T00:02:41.458Z,3.63
2017-12-26T00:05:09.833Z,4.83
2017-12-26T00:07:38.230Z,3.47
2017-12-26T00:10:05.811Z,4.60
2017-12-26T00:12:33.388Z,4.70
2017-12-26T00:15:01.003Z,4.43
2017-12-26T00:17:29.338Z,3.53
2017-12-26T00:19:56.923Z,4.20
2017-12-26T00:22:24.516Z,4.53
2017-12-26T00:24:52.076Z,3.33
2017-12-26T00:27:19.681Z,4.07
2017-12-26T00:29:47.255Z,4.00
2017-12-26T00:32:14.825Z,4.03
2017-12-26T00:34:42.400Z,4.10
2017-12-26T00:37:10.730Z,3.70
2017-12-26T00:39:38.348Z,4.17
2017-12-26T00:42:06.677Z,5.43
2017-12-26T00:44:34.267Z,4.40
2017-12-26T00:47:01.863Z,3.63
2017-12-26T00:49:29.447Z,5.93
2017-12-26T00:51:57.040Z,4.23
2017-12-26T00:54:24.605Z,4.40
2017-12-26T00:56:52.186Z,5.17
2017-12-26T00:59:20.532Z,4.47
2017-12-26T01:01:48.118Z,3.87
2017-12-26T01:04:16.505Z,4.57
2017-12-26T01:06:44.851Z,4.57
2017-12-26T01:09:12.436Z,3.73
2017-12-26T01:11:40.788Z,3.80
2017-12-26T01:14:08.366Z,4.50
2017-12-26T01:16:36.003Z,4.00
2017-12-26T01:19:03.583Z,4.33
2017-12-26T01:21:31.166Z,4.10
2017-12-26T01:23:59.497Z,4.33
2017-12-26T01:26:27.071Z,4.00
2017-12-26T01:28:54.692Z,4.93
2017-12-26T01:31:22.265Z,5.00
2017-12-26T01:33:49.855Z,4.53
2017-12-26T01:36:17.434Z,5.37
2017-12-26T01:38:45.790Z,4.50
2017-12-26T01:41:13.394Z,3.80
2017-12-26T01:43:41.735Z,3.90
2017-12-26T01:46:21.160Z,4.80
2017-12-26T01:48:48.742Z,3.83
2017-12-26T01:51:16.335Z,4.50
2017-12-26T01:53:43.940Z,4.00
2017-12-26T01:56:11.508Z,4.40
2017-12-26T01:58:39.119Z,4.43
2017-12-26T02:01:06.710Z,4.30
2017-12-26T02:03:34.275Z,4.10
2017-12-26T02:06:01.864Z,4.20
2017-12-26T02:08:29.456Z,4.33
2017-12-26T02:10:57.835Z,4.17
2017-12-26T02:13:26.178Z,3.97
2017-12-26T02:15:53.744Z,4.23
2017-12-26T02:18:21.330Z,4.27
2017-12-26T02:20:49.664Z,4.10
2017-12-26T02:23:17.274Z,3.97
2017-12-26T02:25:45.619Z,4.20
2017-12-26T02:28:13.203Z,4.60
2017-12-26T02:30:41.546Z,4.57
2017-12-26T02:33:09.121Z,4.20
2017-12-26T02:35:36.731Z,3.87
2017-12-26T02:38:04.294Z,5.00
2017-12-26T02:40:31.875Z,4.13
2017-12-26T02:42:59.469Z,4.83
2017-12-26T02:45:27.044Z,4.30
2017-12-26T02:47:55.458Z,5.80
2017-12-26T02:50:23.038Z,4.23
2017-12-26T02:52:50.633Z,4.20
2017-12-26T02:55:18.196Z,4.80
2017-12-26T02:57:46.554Z,4.57
2017-12-26T03:00:14.130Z,4.20
2017-12-26T03:02:41.750Z,3.93
2017-12-26T03:05:09.388Z,4.33
2017-12-26T03:07:36.968Z,3.77
2017-12-26T03:10:04.547Z,3.60
2017-12-26T03:12:32.132Z,3.97
2017-12-26T03:14:59.722Z,3.60
2017-12-26T03:17:27.296Z,4.53
2017-12-26T03:19:54.884Z,4.10
2017-12-26T03:22:22.489Z,3.80
2017-12-26T03:24:50.822Z,4.57
2017-12-26T03:27:18.402Z,4.23
2017-12-26T03:29:45.977Z,3.93
2017-12-26T03:32:13.545Z,4.47
2017-12-26T03:34:41.892Z,5.00
2017-12-26T03:37:10.928Z,4.10
2017-12-26T03:39:39.310Z,3.87
2017-12-26T03:42:07.686Z,5.27
2017-12-26T03:44:36.062Z,3.83
2017-12-26T03:47:04.406Z,3.80
2017-12-26T03:49:31.989Z,4.50
2017-12-26T03:51:59.569Z,5.13
2017-12-26T03:54:27.924Z,3.67
2017-12-26T03:56:55.543Z,4.10
2017-12-26T03:59:23.138Z,5.37
2017-12-26T04:01:50.712Z,4.00
2017-12-26T04:04:18.286Z,5.50
2017-12-26T04:06:46.639Z,4.23
2017-12-26T04:09:14.228Z,4.40
2017-12-26T04:11:42.578Z,4.47
2017-12-26T04:14:10.177Z,3.47
2017-12-26T04:16:37.740Z,4.50
2017-12-26T04:19:05.352Z,4.13
2017-12-26T04:21:32.940Z,4.20
2017-12-26T04:24:01.300Z,3.40
2017-12-26T04:26:28.886Z,3.27
2017-12-26T04:28:57.262Z,3.67
2017-12-26T04:31:25.642Z,3.80
2017-12-26T04:33:53.985Z,3.70
2017-12-26T04:36:21.576Z,4.43
2017-12-26T04:38:49.927Z,4.60
2017-12-26T04:41:17.497Z,3.80
2017-12-26T04:43:45.092Z,3.77
2017-12-26T04:46:12.670Z,3.83
2017-12-26T04:48:40.287Z,3.87
2017-12-26T04:51:07.870Z,4.00
2017-12-26T04:53:36.219Z,3.53
2017-12-26T04:56:03.802Z,3.93
2017-12-26T04:58:32.148Z,5.27
2017-12-26T05:00:59.721Z,3.60
2017-12-26T05:03:27.293Z,4.50
2017-12-26T05:05:54.901Z,3.70
2017-12-26T05:08:22.459Z,3.87
2017-12-26T05:10:50.029Z,3.73
2017-12-26T05:13:17.599Z,3.67
2017-12-26T05:15:45.173Z,4.70
2017-12-26T05:18:12.745Z,4.03
2017-12-26T05:20:40.327Z,4.03
2017-12-26T05:23:08.688Z,3.87
2017-12-26T05:25:36.264Z,3.33
2017-12-26T05:28:04.843Z,4.13
2017-12-26T05:30:33.180Z,4.70
2017-12-26T05:33:00.759Z,4.03
2017-12-26T05:35:28.351Z,3.60
2017-12-26T05:37:56.702Z,4.07
2017-12-26T05:40:24.343Z,3.47
2017-12-26T05:42:51.916Z,3.23
2017-12-26T05:45:19.520Z,4.43
2017-12-26T05:47:47.872Z,3.30
2017-12-26T05:50:15.445Z,3.80
2017-12-26T05:52:43.802Z,3.47
2017-12-26T05:55:11.390Z,3.60
2017-12-26T05:57:39.766Z,4.43
2017-12-26T06:00:08.105Z,2.80
2017-12-26T06:02:35.691Z,3.50
2017-12-26T06:05:04.075Z,3.90
2017-12-26T06:07:31.650Z,3.23
2017-12-26T06:10:00.008Z,3.67
2017-12-26T06:12:27.595Z,3.90
2017-12-26T06:14:55.965Z,3.23
2017-12-26T06:17:24.312Z,3.50
2017-12-26T06:19:51.902Z,3.43
2017-12-26T06:22:20.248Z,3.43
2017-12-26T06:24:47.816Z,3.60
2017-12-26T06:27:16.191Z,3.67
2017-12-26T06:29:43.761Z,3.73
2017-12-26T06:32:11.365Z,2.90
2017-12-26T06:34:38.961Z,3.77
2017-12-26T06:37:06.575Z,3.50
2017-12-26T06:39:34.156Z,3.10
2017-12-26T06:42:01.750Z,3.43
2017-12-26T06:44:29.334Z,4.10
2017-12-26T06:46:56.918Z,3.03
2017-12-26T06:49:25.295Z,3.90
2017-12-26T06:51:53.633Z,3.13
2017-12-26T06:54:21.200Z,3.77
2017-12-26T06:56:48.773Z,4.17
2017-12-26T06:59:16.373Z,3.30
2017-12-26T07:01:43.956Z,5.27
2017-12-26T07:04:11.542Z,3.03
2017-12-26T07:06:39.151Z,3.37
2017-12-26T07:09:06.738Z,3.50
2017-12-26T07:11:34.323Z,3.10
2017-12-26T07:14:01.910Z,3.33
2017-12-26T07:16:30.253Z,3.00
2017-12-26T07:18:57.843Z,3.57
2017-12-26T07:21:31.852Z,3.07
2017-12-26T07:24:00.210Z,3.87
2017-12-26T07:26:27.789Z,3.43
2017-12-26T07:28:55.403Z,3.57
2017-12-26T07:31:22.990Z,3.30
2017-12-26T07:33:50.578Z,2.90
2017-12-26T07:36:18.926Z,3.20
2017-12-26T07:38:46.511Z,3.10
2017-12-26T07:41:14.095Z,3.20
2017-12-26T07:43:41.735Z,3.00
2017-12-26T07:46:09.331Z,3.33
2017-12-26T07:48:36.896Z,3.20
2017-12-26T07:51:04.487Z,3.27
2017-12-26T07:53:32.073Z,3.40
2017-12-26T07:55:59.645Z,3.03
2017-12-26T07:58:27.994Z,3.57
2017-12-26T08:00:55.569Z,2.70
2017-12-26T08:03:23.200Z,2.60
2017-12-26T08:05:50.782Z,3.13
2017-12-26T08:08:18.362Z,2.67
2017-12-26T08:10:46.714Z,3.93
2017-12-26T08:13:14.289Z,3.97
2017-12-26T08:15:41.860Z,2.60
2017-12-26T08:18:09.461Z,2.30
2017-12-26T08:20:37.081Z,3.23
2017-12-26T08:23:04.663Z,2.80
2017-12-26T08:25:33.027Z,3.60
2017-12-26T08:28:01.364Z,3.30
2017-12-26T08:30:28.946Z,3.40
2017-12-26T08:32:56.537Z,3.67
2017-12-26T08:35:24.900Z,3.43
2017-12-26T08:37:53.298Z,2.70
2017-12-26T08:40:20.899Z,2.70
2017-12-26T08:42:48.461Z,2.43
2017-12-26T08:45:16.049Z,2.57
2017-12-26T08:47:43.651Z,3.10
2017-12-26T08:50:11.260Z,2.47
2017-12-26T08:52:38.838Z,3.10
2017-12-26T08:55:06.450Z,2.27
2017-12-26T08:57:34.041Z,2.70
2017-12-26T09:00:01.620Z,2.77
2017-12-26T09:02:29.209Z,2.57
2017-12-26T09:04:56.802Z,2.50
2017-12-26T09:07:24.365Z,2.87
2017-12-26T09:09:51.956Z,2.30
2017-12-26T09:12:19.578Z,2.90
2017-12-26T09:14:47.167Z,2.47
2017-12-26T09:17:14.748Z,3.37
2017-12-26T09:19:42.346Z,3.00
2017-12-26T09:22:09.916Z,2.93
2017-12-26T09:24:37.505Z,2.70
2017-12-26T09:27:05.077Z,2.53
2017-12-26T09:29:32.681Z,2.77
2017-12-26T09:32:00.281Z,2.30
2017-12-26T09:34:27.856Z,3.10
2017-12-26T09:36:55.420Z,3.07
2017-12-26T09:39:23.006Z,3.27
2017-12-26T09:41:51.355Z,2.57
2017-12-26T09:44:18.922Z,2.33
2017-12-26T09:46:46.534Z,2.60
2017-12-26T09:49:14.141Z,2.83
2017-12-26T09:51:41.729Z,3.20
2017-12-26T09:54:10.079Z,2.70
2017-12-26T09:56:37.657Z,2.40
2017-12-26T09:59:05.236Z,2.90
2017-12-26T10:01:32.862Z,3.80
2017-12-26T10:04:00.453Z,2.40
2017-12-26T10:06:28.800Z,2.33
2017-12-26T10:08:56.379Z,2.53
2017-12-26T10:11:23.942Z,2.67
2017-12-26T10:13:51.517Z,2.30
2017-12-26T10:16:19.875Z,1.90
2017-12-26T10:18:47.465Z,3.17
2017-12-26T10:21:15.846Z,2.90
2017-12-26T10:23:43.415Z,2.53
2017-12-26T10:26:11.002Z,2.30
2017-12-26T10:28:38.579Z,2.70
2017-12-26T10:31:06.145Z,2.57
2017-12-26T10:33:33.720Z,2.70
2017-12-26T10:36:01.312Z,1.87
2017-12-26T10:38:28.924Z,2.10
2017-12-26T10:40:56.509Z,2.60
2017-12-26T10:43:24.845Z,2.63
2017-12-26T10:45:52.440Z,2.40
2017-12-26T10:48:20.028Z,2.93
2017-12-26T10:50:48.371Z,2.10
2017-12-26T10:53:15.955Z,2.27
2017-12-26T10:55:44.317Z,2.13
2017-12-26T10:58:11.889Z,2.50
2017-12-26T11:00:40.226Z,1.93
2017-12-26T11:03:07.806Z,2.30
2017-12-26T11:05:35.391Z,2.43
2017-12-26T11:08:03.734Z,1.93
2017-12-26T11:10:31.308Z,2.30
2017-12-26T11:12:58.923Z,2.17
2017-12-26T11:15:26.548Z,2.73
2017-12-26T11:17:54.906Z,2.13
2017-12-26T11:20:22.516Z,2.03
2017-12-26T11:22:50.103Z,2.17
2017-12-26T11:25:17.688Z,2.60
2017-12-26T11:27:45.270Z,2.00
2017-12-26T11:30:13.647Z,2.43
2017-12-26T11:32:41.998Z,1.80
2017-12-26T11:35:09.592Z,1.80
2017-12-26T11:37:37.925Z,2.17
2017-12-26T11:40:05.515Z,2.07
2017-12-26T11:42:33.093Z,2.27
2017-12-26T11:45:01.434Z,2.03
2017-12-26T11:47:29.033Z,1.70
2017-12-26T11:49:57.371Z,2.03
2017-12-26T11:52:24.957Z,1.70
2017-12-26T11:54:52.525Z,1.80
2017-12-26T11:57:20.884Z,1.93
2017-12-26T12:02:41.328Z,2.67
2017-12-26T12:05:09.701Z,2.43
2017-12-26T12:07:38.050Z,1.70
2017-12-26T12:10:05.625Z,2.00
2017-12-26T12:12:33.204Z,1.73
2017-12-26T12:15:01.549Z,1.30
2017-12-26T12:17:29.118Z,2.00
2017-12-26T12:19:58.715Z,1.80
2017-12-26T12:22:26.313Z,1.77
2017-12-26T12:24:54.763Z,2.10
2017-12-26T12:27:22.360Z,1.80
2017-12-26T12:29:50.706Z,1.50
2017-12-26T12:32:18.277Z,2.93
2017-12-26T12:34:45.848Z,1.50
2017-12-26T12:37:14.188Z,1.63
2017-12-26T12:39:41.802Z,1.40
2017-12-26T12:42:10.152Z,1.83
2017-12-26T12:44:37.739Z,1.53
2017-12-26T12:47:06.101Z,1.73
2017-12-26T12:49:34.463Z,1.20
2017-12-26T12:52:02.067Z,1.40
2017-12-26T12:54:29.652Z,1.30
2017-12-26T12:56:57.252Z,1.67
2017-12-26T12:59:24.839Z,1.50
2017-12-26T13:01:53.180Z,1.60
2017-12-26T13:04:20.763Z,1.50
2017-12-26T13:06:49.114Z,1.60
2017-12-26T13:09:16.703Z,1.40
2017-12-26T13:11:45.063Z,1.50
2017-12-26T13:14:12.669Z,1.20
2017-12-26T13:16:40.240Z,1.50
2017-12-26T13:19:07.814Z,1.40
2017-12-26T13:21:35.397Z,1.40
2017-12-26T13:24:03.000Z,1.30
2017-12-26T13:26:31.337Z,1.50
2017-12-26T13:28:58.922Z,1.43
2017-12-26T13:31:27.303Z,1.60
2017-12-26T13:33:55.652Z,1.27
2017-12-26T13:36:23.226Z,1.17
2017-12-26T13:38:50.813Z,5.00
2017-12-26T13:41:19.158Z,1.23
2017-12-26T13:43:46.758Z,1.30
2017-12-26T13:46:15.107Z,1.07
2017-12-26T13:48:42.724Z,1.30
2017-12-26T13:51:10.290Z,1.60
2017-12-26T13:53:37.874Z,1.40
2017-12-26T13:56:05.444Z,1.70
2017-12-26T13:58:33.028Z,1.10
2017-12-26T14:01:01.362Z,1.27
2017-12-26T14:03:28.954Z,1.60
2017-12-26T14:05:56.554Z,1.63
2017-12-26T14:08:24.146Z,1.17
2017-12-26T14:10:52.484Z,1.27
2017-12-26T14:13:20.835Z,1.20
2017-12-26T14:15:48.404Z,1.63
2017-12-26T14:18:16.760Z,1.30
2017-12-26T14:20:44.340Z,1.47
2017-12-26T14:23:12.721Z,1.10
2017-12-26T14:25:41.057Z,1.20
2017-12-26T14:28:08.655Z,1.50
2017-12-26T14:30:36.242Z,1.37
2017-12-26T14:33:03.859Z,1.40
2017-12-26T14:35:31.446Z,1.27
2017-12-26T14:37:59.801Z,1.20
2017-12-26T14:40:27.400Z,1.30
2017-12-26T14:42:55.747Z,1.63
2017-12-26T14:45:23.316Z,2.53
2017-12-26T14:47:50.902Z,1.60
2017-12-26T14:50:18.502Z,1.20
2017-12-26T14:52:46.081Z,1.47
2017-12-26T14:55:14.442Z,1.27
2017-12-26T14:57:42.036Z,1.20
2017-12-26T15:00:09.628Z,1.57
2017-12-26T15:02:37.212Z,1.30
2017-12-26T15:05:04.785Z,2.20
2017-12-26T15:07:32.364Z,1.20
2017-12-26T15:09:59.941Z,2.23
2017-12-26T15:12:28.310Z,1.10
2017-12-26T15:14:55.905Z,1.70
2017-12-26T15:17:23.507Z,1.20
2017-12-26T15:19:51.110Z,1.13
2017-12-26T15:22:20.510Z,1.40
2017-12-26T15:24:48.866Z,1.30
2017-12-26T15:27:16.438Z,1.30
2017-12-26T15:29:44.808Z,1.37
2017-12-26T15:32:12.419Z,1.10
2017-12-26T15:34:40.032Z,1.20
2017-12-26T15:37:07.604Z,1.30
2017-12-26T15:39:35.192Z,1.20
2017-12-26T15:42:02.771Z,1.43
2017-12-26T15:44:30.368Z,1.30
2017-12-26T15:46:57.941Z,0.97
2017-12-26T15:49:25.558Z,3.13
2017-12-26T15:51:53.142Z,1.50
2017-12-26T15:54:20.712Z,1.13
2017-12-26T15:56:48.280Z,1.47
2017-12-26T15:59:15.866Z,1.23
2017-12-26T16:01:44.210Z,1.30
2017-12-26T16:04:11.793Z,1.30
2017-12-26T16:06:40.161Z,1.43
2017-12-26T16:09:07.737Z,1.20
2017-12-26T16:11:36.090Z,1.53
2017-12-26T16:14:03.679Z,1.67
2017-12-26T16:16:32.016Z,1.27
2017-12-26T16:18:59.592Z,1.37
2017-12-26T16:21:27.178Z,1.60
2017-12-26T16:23:55.541Z,1.03
2017-12-26T16:26:23.125Z,1.17
2017-12-26T16:28:51.456Z,1.40
2017-12-26T16:31:19.051Z,1.53
2017-12-26T16:33:47.403Z,1.07
2017-12-26T16:36:14.997Z,1.27
2017-12-26T16:38:43.337Z,1.50
2017-12-26T16:41:10.962Z,1.53
2017-12-26T16:43:38.560Z,1.30
2017-12-26T16:46:06.130Z,1.13
2017-12-26T16:48:33.729Z,1.50
2017-12-26T16:51:02.082Z,1.10
2017-12-26T16:53:29.655Z,1.50
2017-12-26T16:55:57.988Z,1.10
2017-12-26T16:58:25.603Z,1.40
2017-12-26T17:00:53.954Z,0.93
2017-12-26T17:03:21.536Z,1.20
2017-12-26T17:05:49.872Z,1.10
2017-12-26T17:08:17.447Z,1.43
2017-12-26T17:10:45.042Z,0.93
2017-12-26T17:13:13.382Z,1.30
2017-12-26T17:15:40.994Z,1.23
2017-12-26T17:18:08.589Z,1.23
2017-12-26T17:20:36.157Z,1.30
2017-12-26T17:23:03.724Z,1.00
2017-12-26T17:25:31.294Z,1.33
2017-12-26T17:27:58.888Z,1.20
2017-12-26T17:30:27.222Z,1.30
2017-12-26T17:32:54.843Z,1.60
2017-12-26T17:35:22.425Z,2.20
2017-12-26T17:37:49.992Z,1.03
2017-12-26T17:40:17.572Z,1.20
2017-12-26T17:42:45.156Z,1.50
2017-12-26T17:45:13.503Z,1.30
2017-12-26T17:47:41.084Z,1.37
2017-12-26T17:50:08.690Z,1.10
2017-12-26T17:52:36.276Z,1.20
2017-12-26T17:55:03.850Z,1.10
2017-12-26T17:57:31.417Z,1.60
2017-12-26T17:59:59.010Z,1.47
2017-12-26T18:02:27.349Z,1.20
2017-12-26T18:04:54.921Z,1.40
2017-12-26T18:07:22.535Z,1.53
2017-12-26T18:09:50.126Z,1.10
2017-12-26T18:12:17.706Z,1.10
2017-12-26T18:14:45.302Z,1.20
2017-12-26T18:17:12.872Z,1.27
2017-12-26T18:19:40.465Z,1.27
2017-12-26T18:22:11.206Z,0.97
2017-12-26T18:24:38.811Z,1.20
2017-12-26T18:27:07.155Z,1.77
2017-12-26T18:29:34.741Z,1.07
2017-12-26T18:32:03.063Z,2.00
2017-12-26T18:34:30.628Z,1.43
2017-12-26T18:36:58.213Z,1.20
2017-12-26T18:39:25.779Z,1.83
2017-12-26T18:41:53.381Z,0.90
2017-12-26T18:44:20.965Z,2.20
2017-12-26T18:46:48.532Z,1.10
2017-12-26T18:49:16.101Z,1.63
2017-12-26T18:51:43.694Z,1.30
2017-12-26T18:54:12.051Z,1.20
2017-12-26T18:56:39.642Z,1.10
2017-12-26T18:59:08.025Z,1.40
2017-12-26T19:01:36.365Z,1.50
2017-12-26T19:04:03.943Z,1.40
2017-12-26T19:06:31.517Z,1.10
2017-12-26T19:08:59.894Z,1.03
2017-12-26T19:11:28.232Z,0.93
2017-12-26T19:13:55.808Z,1.43
2017-12-26T19:16:23.422Z,1.20
2017-12-26T19:18:51.003Z,1.63
2017-12-26T19:21:18.567Z,1.20
2017-12-26T19:23:46.154Z,1.07
2017-12-26T19:26:13.728Z,1.40
2017-12-26T19:28:41.314Z,1.13
2017-12-26T19:31:08.875Z,1.10
2017-12-26T19:33:36.491Z,1.20
2017-12-26T19:36:04.052Z,1.17
2017-12-26T19:38:31.615Z,1.30
2017-12-26T19:40:59.186Z,1.60
2017-12-26T19:43:26.760Z,1.07
2017-12-26T19:45:55.096Z,1.20
2017-12-26T19:48:22.683Z,1.30
2017-12-26T19:50:50.282Z,1.40
2017-12-26T19:53:17.867Z,1.73
2017-12-26T19:55:45.453Z,1.60
2017-12-26T19:58:13.811Z,1.17
2017-12-26T20:00:41.402Z,1.07
2017-12-26T20:03:09.000Z,1.10
2017-12-26T20:05:36.581Z,1.27
2017-12-26T20:08:04.186Z,0.97
2017-12-26T20:10:31.772Z,1.20
2017-12-26T20:13:00.118Z,0.97
2017-12-26T20:15:27.707Z,1.13
2017-12-26T20:17:56.062Z,1.10
2017-12-26T20:20:23.657Z,1.20
2017-12-26T20:22:51.243Z,1.20
2017-12-26T20:25:18.861Z,1.20
2017-12-26T20:27:47.213Z,2.40
2017-12-26T20:30:14.785Z,1.70
2017-12-26T20:32:42.362Z,1.83
2017-12-26T20:35:10.705Z,1.07
2017-12-26T20:37:38.274Z,1.20
2017-12-26T20:40:05.844Z,1.53
2017-12-26T20:42:33.440Z,1.10
2017-12-26T20:45:01.028Z,1.57
2017-12-26T20:47:28.596Z,1.47
2017-12-26T20:49:56.172Z,1.23
2017-12-26T20:52:23.770Z,0.93
2017-12-26T20:54:52.096Z,1.30
2017-12-26T20:57:19.690Z,1.20
2017-12-26T20:59:47.304Z,1.27
2017-12-26T21:02:15.633Z,1.40
2017-12-26T21:04:43.215Z,1.20
2017-12-26T21:07:11.557Z,1.40
2017-12-26T21:09:39.132Z,1.33
2017-12-26T21:12:06.731Z,1.10
2017-12-26T21:14:34.313Z,1.50
2017-12-26T21:17:01.900Z,3.27
2017-12-26T21:19:29.463Z,1.40
2017-12-26T21:21:57.020Z,1.30
2017-12-26T21:24:24.595Z,1.20
2017-12-26T21:26:52.950Z,1.30
2017-12-26T21:29:20.527Z,1.40
2017-12-26T21:31:48.126Z,1.40
2017-12-26T21:34:15.748Z,1.77
2017-12-26T21:36:43.320Z,1.40
2017-12-26T21:39:11.680Z,1.00
2017-12-26T21:41:39.249Z,1.50
2017-12-26T21:44:06.832Z,1.00
2017-12-26T21:46:35.175Z,1.27
2017-12-26T21:49:02.774Z,1.60
2017-12-26T21:51:31.139Z,1.40
2017-12-26T21:53:58.750Z,1.30
2017-12-26T21:56:26.330Z,1.37
2017-12-26T21:58:53.896Z,1.80
2017-12-26T22:01:21.483Z,1.10
2017-12-26T22:03:49.817Z,1.10
2017-12-26T22:06:17.399Z,1.57
2017-12-26T22:08:44.988Z,1.53
2017-12-26T22:11:13.334Z,1.30
2017-12-26T22:13:40.918Z,1.60
2017-12-26T22:16:09.267Z,1.00
2017-12-26T22:18:36.847Z,1.40
2017-12-26T22:21:04.427Z,1.33
2017-12-26T22:23:32.791Z,1.10
2017-12-26T22:26:00.397Z,1.27
2017-12-26T22:28:27.994Z,0.90
2017-12-26T22:30:55.565Z,1.50
2017-12-26T22:33:23.132Z,2.20
2017-12-26T22:35:50.714Z,1.20
2017-12-26T22:38:19.067Z,1.33
2017-12-26T22:40:46.638Z,1.13
2017-12-26T22:43:15.005Z,1.30
2017-12-26T22:45:42.568Z,1.30
2017-12-26T22:48:10.137Z,1.33
2017-12-26T22:50:37.717Z,1.63
2017-12-26T22:53:06.079Z,1.00
2017-12-26T22:55:34.413Z,1.40
2017-12-26T22:58:01.981Z,1.30
2017-12-26T23:00:29.582Z,1.50
2017-12-26T23:02:57.925Z,1.47
2017-12-26T23:05:25.485Z,1.50
2017-12-26T23:07:53.055Z,2.23
2017-12-26T23:10:20.633Z,1.60
2017-12-26T23:12:48.211Z,1.40
2017-12-26T23:15:22.279Z,1.20
2017-12-26T23:17:55.388Z,1.30
2017-12-26T23:20:28.679Z,1.30
2017-12-26T23:23:02.106Z,1.30
2017-12-26T23:25:36.050Z,1.40
2017-12-26T23:28:09.398Z,1.50
2017-12-26T23:33:49.109Z,1.13
2017-12-26T23:36:22.425Z,1.17
2017-12-26T23:38:55.728Z,1.80
2017-12-26T23:41:28.894Z,1.20
2017-12-26T23:44:02.065Z,1.47
2017-12-26T23:46:35.297Z,1.17
2017-12-26T23:49:08.620Z,1.80
2017-12-26T23:51:41.896Z,1.70
2017-12-26T23:54:15.101Z,1.17
2017-12-26T23:56:48.468Z,1.20
2017-12-26T23:59:21.604Z,1.20
